Time;durP1;ratioP1;P1;durP2;ratioP2;P2;SDS_P1;SDS_P2;PMS_P1;PMS_P2;Temp;Humidity;BMP_temperature;BMP_pressure;BME280_temperature;BME280_humidity;BME280_pressure;Samples;Min_cycle;Max_cycle;Signal;HPM_P1;HPM_P2
2022/01/10 00:00:42;;;;;;;0.73;0.60;;;;;;;;;;5033833;28;20025;-71
2022/01/10 00:03:09;;;;;;;0.70;0.60;;;;;;;;;;5033932;28;20030;-71
2022/01/10 00:05:35;;;;;;;1.40;0.70;;;;;;;;;;5042430;28;20484;-71
2022/01/10 00:08:04;;;;;;;0.98;0.63;;;;;;;;;;5053632;28;20035;-71
2022/01/10 00:10:31;;;;;;;0.80;0.68;;;;;;;;;;5053208;28;20028;-71
2022/01/10 00:12:57;;;;;;;0.50;0.50;;;;;;;;;;5054047;28;20032;-71
2022/01/10 00:15:23;;;;;;;0.60;0.50;;;;;;;;;;5053113;28;20514;-71
2022/01/10 00:17:49;;;;;;;1.10;0.63;;;;;;;;;;5053561;28;20029;-71
2022/01/10 00:20:16;;;;;;;1.30;0.60;;;;;;;;;;5053406;28;20020;-71
2022/01/10 00:22:46;;;;;;;0.80;0.68;;;;;;;;;;5053456;28;20040;-71
2022/01/10 00:25:12;;;;;;;0.90;0.70;;;;;;;;;;5052984;28;20101;-71
2022/01/10 00:27:38;;;;;;;0.80;0.50;;;;;;;;;;5053772;28;20025;-71
2022/01/10 00:30:05;;;;;;;0.95;0.70;;;;;;;;;;5047084;28;20028;-71
2022/01/10 00:32:31;;;;;;;0.90;0.50;;;;;;;;;;5033101;28;20025;-71
2022/01/10 00:34:57;;;;;;;1.17;0.75;;;;;;;;;;5032934;28;20026;-71
2022/01/10 00:37:23;;;;;;;0.52;0.50;;;;;;;;;;5033306;28;20053;-71
2022/01/10 00:39:49;;;;;;;1.00;0.65;;;;;;;;;;5032847;28;20025;-71
2022/01/10 00:42:16;;;;;;;0.75;0.60;;;;;;;;;;5047569;28;20444;-71
2022/01/10 00:44:51;;;;;;;1.02;0.68;;;;;;;;;;5052529;28;20028;-71
2022/01/10 00:47:17;;;;;;;0.80;0.60;;;;;;;;;;5052630;28;20028;-71
2022/01/10 00:49:43;;;;;;;1.08;0.60;;;;;;;;;;5052807;28;20029;-71
2022/01/10 00:52:10;;;;;;;0.90;0.70;;;;;;;;;;5051662;28;20032;-71
2022/01/10 00:54:36;;;;;;;1.10;0.80;;;;;;;;;;5052818;28;20078;-71
2022/01/10 00:57:02;;;;;;;0.93;0.70;;;;;;;;;;5051211;28;20052;-71
2022/01/10 00:59:28;;;;;;;0.80;0.60;;;;;;;;;;5052595;28;20494;-71
2022/01/10 01:01:54;;;;;;;0.82;0.80;;;;;;;;;;5052473;28;20049;-71
2022/01/10 01:04:20;;;;;;;0.70;0.60;;;;;;;;;;5052741;28;20024;-71
2022/01/10 01:06:47;;;;;;;1.23;0.95;;;;;;;;;;5033614;28;20025;-71
2022/01/10 01:09:16;;;;;;;0.90;0.70;;;;;;;;;;5032753;28;20385;-71
2022/01/10 01:12:09;;;;;;;1.25;1.00;;;;;;;;;;5032325;28;20032;-71
2022/01/10 01:17:14;;;;;;;1.05;0.68;;;;;;;;;;5032406;28;19958;-71
2022/01/10 01:25:07;;;;;;;1.13;0.80;;;;;;;;;;5032458;28;20152;-71
2022/01/10 01:27:33;;;;;;;1.30;0.85;;;;;;;;;;5032311;28;20532;-71
2022/01/10 01:29:59;;;;;;;1.63;1.10;;;;;;;;;;5037163;28;20017;-71
2022/01/10 01:32:26;;;;;;;1.38;0.80;;;;;;;;;;5052391;28;20106;-71
2022/01/10 01:34:56;;;;;;;1.60;0.85;;;;;;;;;;5052278;28;20167;-71
2022/01/10 01:37:22;;;;;;;1.85;0.93;;;;;;;;;;5051863;28;20155;-71
2022/01/10 01:39:48;;;;;;;1.55;0.82;;;;;;;;;;5052339;28;20130;-71
2022/01/10 01:42:38;;;;;;;1.73;1.00;;;;;;;;;;5037830;28;20032;-71
2022/01/10 01:45:06;;;;;;;1.58;0.93;;;;;;;;;;5032173;28;20040;-71
2022/01/10 01:47:32;;;;;;;1.45;0.93;;;;;;;;;;5032268;28;20400;-71
2022/01/10 01:49:59;;;;;;;1.40;0.98;;;;;;;;;;5032261;28;20037;-71
2022/01/10 01:52:25;;;;;;;1.48;0.90;;;;;;;;;;5031811;28;20017;-71
2022/01/10 01:54:51;;;;;;;1.75;1.08;;;;;;;;;;5032067;28;20438;-71
2022/01/10 01:57:18;;;;;;;1.75;1.00;;;;;;;;;;5031857;28;20038;-71
2022/01/10 01:59:44;;;;;;;1.73;1.00;;;;;;;;;;5030893;28;20431;-71
2022/01/10 02:02:10;;;;;;;1.83;1.05;;;;;;;;;;5031893;28;20109;-71
2022/01/10 02:04:36;;;;;;;1.63;1.00;;;;;;;;;;5036886;28;20033;-71
2022/01/10 02:07:03;;;;;;;1.52;1.00;;;;;;;;;;5047533;28;20021;-71
2022/01/10 02:09:30;;;;;;;3.20;1.23;;;;;;;;;;5047336;28;20115;-71
2022/01/10 02:11:56;;;;;;;1.52;0.90;;;;;;;;;;5040902;28;20021;-71
2022/01/10 02:14:23;;;;;;;1.65;1.08;;;;;;;;;;5035928;28;20033;-71
2022/01/10 02:16:56;;;;;;;1.30;0.90;;;;;;;;;;5054592;28;20456;-71
2022/01/10 02:19:25;;;;;;;2.38;1.20;;;;;;;;;;5055712;28;20037;-71
2022/01/10 02:21:51;;;;;;;2.08;1.27;;;;;;;;;;5055327;28;20021;-71
2022/01/10 02:24:18;;;;;;;1.50;1.02;;;;;;;;;;5044883;28;20373;-71
2022/01/10 02:26:48;;;;;;;1.58;1.00;;;;;;;;;;5034028;28;20022;-71
2022/01/10 02:29:15;;;;;;;1.95;1.20;;;;;;;;;;5035449;28;20029;-71
2022/01/10 02:31:41;;;;;;;1.95;1.35;;;;;;;;;;5035213;28;20034;-71
2022/01/10 02:34:07;;;;;;;1.90;1.23;;;;;;;;;;5035860;28;20055;-71
2022/01/10 02:36:34;;;;;;;1.65;0.90;;;;;;;;;;5035234;28;20028;-71
2022/01/10 02:39:01;;;;;;;2.15;1.25;;;;;;;;;;5035462;28;20370;-71
2022/01/10 02:41:27;;;;;;;1.88;1.10;;;;;;;;;;5038371;28;20018;-71
2022/01/10 02:43:54;;;;;;;1.98;1.10;;;;;;;;;;5034956;28;20037;-71
2022/01/10 02:46:21;;;;;;;1.77;0.93;;;;;;;;;;5035111;28;20017;-71
2022/01/10 02:48:47;;;;;;;1.60;1.00;;;;;;;;;;5035067;28;20033;-71
2022/01/10 02:51:13;;;;;;;2.33;1.25;;;;;;;;;;5034840;28;20025;-71
2022/01/10 02:53:39;;;;;;;1.80;1.20;;;;;;;;;;5034948;28;20029;-71
2022/01/10 02:56:05;;;;;;;1.25;0.98;;;;;;;;;;5034768;28;20022;-71
2022/01/10 02:58:32;;;;;;;1.35;0.98;;;;;;;;;;5034834;28;20558;-71
2022/01/10 03:00:58;;;;;;;1.95;1.20;;;;;;;;;;5034853;28;20029;-71
2022/01/10 03:03:29;;;;;;;1.27;0.90;;;;;;;;;;5034851;28;20120;-71
2022/01/10 03:05:55;;;;;;;1.33;0.95;;;;;;;;;;5046337;28;20017;-71
2022/01/10 03:08:21;;;;;;;1.80;0.95;;;;;;;;;;5054503;28;20029;-71
2022/01/10 03:10:47;;;;;;;1.52;0.80;;;;;;;;;;5054680;28;20033;-71
2022/01/10 03:13:13;;;;;;;1.25;0.95;;;;;;;;;;5054458;28;20033;-71
2022/01/10 03:15:39;;;;;;;1.48;0.90;;;;;;;;;;5041566;28;20148;-71
2022/01/10 03:18:05;;;;;;;2.08;1.20;;;;;;;;;;5034647;28;20112;-71
2022/01/10 03:20:32;;;;;;;1.33;0.90;;;;;;;;;;5034697;28;20173;-71
2022/01/10 03:22:58;;;;;;;1.92;1.05;;;;;;;;;;5034367;28;20100;-71
2022/01/10 03:25:24;;;;;;;1.10;0.82;;;;;;;;;;5034653;28;20018;-71
2022/01/10 03:27:50;;;;;;;1.27;0.90;;;;;;;;;;5034343;28;20124;-71
2022/01/10 03:30:16;;;;;;;1.20;0.80;;;;;;;;;;5034599;28;20109;-71
2022/01/10 03:32:43;;;;;;;2.40;1.02;;;;;;;;;;5034164;28;20437;-71
2022/01/10 03:35:09;;;;;;;1.35;0.90;;;;;;;;;;5034440;28;20022;-71
2022/01/10 03:37:36;;;;;;;1.73;1.02;;;;;;;;;;5032625;28;20408;-71
2022/01/10 03:40:02;;;;;;;1.25;0.80;;;;;;;;;;5034534;28;20479;-71
2022/01/10 03:42:28;;;;;;;1.60;1.05;;;;;;;;;;5050226;28;20028;-71
2022/01/10 03:44:54;;;;;;;1.02;0.77;;;;;;;;;;5053941;28;20017;-71
2022/01/10 03:47:21;;;;;;;1.60;0.90;;;;;;;;;;5053910;28;20021;-71
2022/01/10 03:49:47;;;;;;;1.27;0.93;;;;;;;;;;5053858;28;20449;-71
2022/01/10 03:52:13;;;;;;;1.70;1.00;;;;;;;;;;5053636;28;20060;-71
2022/01/10 03:54:39;;;;;;;1.60;0.90;;;;;;;;;;5053692;28;20499;-71
2022/01/10 03:57:06;;;;;;;1.25;0.80;;;;;;;;;;5053563;28;20502;-71
2022/01/10 03:59:32;;;;;;;1.55;0.95;;;;;;;;;;5053682;28;20040;-71
2022/01/10 04:01:59;;;;;;;1.35;0.90;;;;;;;;;;5053538;28;20039;-71
2022/01/10 04:04:25;;;;;;;1.30;0.90;;;;;;;;;;5053633;28;20025;-71
2022/01/10 04:06:51;;;;;;;1.05;0.70;;;;;;;;;;5034308;28;20107;-71
2022/01/10 04:09:21;;;;;;;1.08;0.77;;;;;;;;;;5033397;28;20492;-71
2022/01/10 04:11:47;;;;;;;1.80;0.90;;;;;;;;;;5034269;28;20021;-71
2022/01/10 04:14:13;;;;;;;1.38;0.90;;;;;;;;;;5033664;28;20481;-71
2022/01/10 04:16:39;;;;;;;1.38;0.90;;;;;;;;;;5053555;28;20124;-71
2022/01/10 04:19:06;;;;;;;1.20;0.80;;;;;;;;;;5053155;28;20507;-71
2022/01/10 04:21:32;;;;;;;0.90;0.60;;;;;;;;;;5053742;28;20495;-71
2022/01/10 04:23:58;;;;;;;1.45;0.90;;;;;;;;;;5053058;28;20480;-71
2022/01/10 04:26:24;;;;;;;1.23;0.80;;;;;;;;;;5053379;28;20499;-71
2022/01/10 04:28:50;;;;;;;1.10;0.73;;;;;;;;;;5053118;28;20396;-71
2022/01/10 04:31:16;;;;;;;1.08;0.50;;;;;;;;;;5052053;28;20116;-71
2022/01/10 04:33:43;;;;;;;1.13;0.70;;;;;;;;;;5052959;28;20029;-71
2022/01/10 04:36:09;;;;;;;1.00;0.60;;;;;;;;;;5053235;28;20029;-71
2022/01/10 04:38:35;;;;;;;0.85;0.70;;;;;;;;;;5052694;28;20036;-71
2022/01/10 04:41:02;;;;;;;0.80;0.70;;;;;;;;;;5048620;28;20049;-71
2022/01/10 04:43:28;;;;;;;0.90;0.70;;;;;;;;;;5033131;28;20021;-71
2022/01/10 04:45:54;;;;;;;1.50;0.70;;;;;;;;;;5031966;28;20029;-71
2022/01/10 04:48:20;;;;;;;1.25;0.80;;;;;;;;;;5032755;28;20021;-71
2022/01/10 04:51:11;;;;;;;1.20;0.70;;;;;;;;;;5031367;28;20037;-71
2022/01/10 04:53:35;;;;;;;0.98;0.65;;;;;;;;;;5032409;28;20408;-71
2022/01/10 04:56:01;;;;;;;1.38;0.60;;;;;;;;;;5032724;28;20172;-71
2022/01/10 04:58:27;;;;;;;0.82;0.63;;;;;;;;;;5033019;28;20025;-71
2022/01/10 05:00:55;;;;;;;1.00;0.57;;;;;;;;;;5032493;28;20052;-71
2022/01/10 05:03:21;;;;;;;1.23;0.60;;;;;;;;;;5032448;28;20029;-71
2022/01/10 05:05:52;;;;;;;1.02;0.63;;;;;;;;;;5043029;28;20488;-71
2022/01/10 05:08:18;;;;;;;1.13;0.60;;;;;;;;;;5052418;28;20095;-71
2022/01/10 05:10:44;;;;;;;0.80;0.60;;;;;;;;;;5052290;28;20059;-71
2022/01/10 05:13:10;;;;;;;0.70;0.50;;;;;;;;;;5052534;28;20047;-71
2022/01/10 05:15:36;;;;;;;1.08;0.68;;;;;;;;;;5040938;28;20049;-71
2022/01/10 05:18:03;;;;;;;1.10;0.60;;;;;;;;;;5032494;28;20030;-71
2022/01/10 05:20:29;;;;;;;1.33;0.80;;;;;;;;;;5032240;28;20026;-71
2022/01/10 05:22:55;;;;;;;1.10;0.75;;;;;;;;;;5032700;28;20073;-71
2022/01/10 05:25:21;;;;;;;0.90;0.60;;;;;;;;;;5032129;28;20098;-71
2022/01/10 05:27:47;;;;;;;1.10;0.60;;;;;;;;;;5032452;28;20017;-71
2022/01/10 05:30:13;;;;;;;0.98;0.80;;;;;;;;;;5032206;28;20030;-71
2022/01/10 05:32:39;;;;;;;1.35;0.90;;;;;;;;;;5032372;28;20374;-71
2022/01/10 05:35:05;;;;;;;0.80;0.60;;;;;;;;;;5032297;28;20404;-71
2022/01/10 05:37:31;;;;;;;0.85;0.65;;;;;;;;;;5033131;28;20052;-71
2022/01/10 05:39:58;;;;;;;0.98;0.70;;;;;;;;;;5035958;28;20029;-71
2022/01/10 05:42:24;;;;;;;1.33;0.70;;;;;;;;;;5051981;28;20518;-71
2022/01/10 05:44:50;;;;;;;0.55;0.55;;;;;;;;;;5056049;28;20020;-71
2022/01/10 05:47:16;;;;;;;0.68;0.47;;;;;;;;;;5056549;28;20028;-71
2022/01/10 05:49:47;;;;;;;1.23;0.63;;;;;;;;;;5055999;28;20447;-71
2022/01/10 05:52:13;;;;;;;0.70;0.40;;;;;;;;;;5056363;28;20025;-71
2022/01/10 05:54:39;;;;;;;0.52;0.45;;;;;;;;;;5056102;28;20059;-71
2022/01/10 05:57:06;;;;;;;1.13;0.50;;;;;;;;;;5056167;28;20123;-71
2022/01/10 05:59:32;;;;;;;1.00;0.75;;;;;;;;;;5055758;28;20064;-71
2022/01/10 06:01:59;;;;;;;0.70;0.60;;;;;;;;;;5056386;28;20036;-71
2022/01/10 06:04:25;;;;;;;1.00;0.60;;;;;;;;;;5056177;28;20100;-71
2022/01/10 06:06:51;;;;;;;0.93;0.50;;;;;;;;;;5036322;28;20361;-71
2022/01/10 06:09:17;;;;;;;1.15;0.50;;;;;;;;;;5035653;28;20483;-71
2022/01/10 06:11:43;;;;;;;0.60;0.50;;;;;;;;;;5034514;28;20128;-71
2022/01/10 06:14:09;;;;;;;0.70;0.50;;;;;;;;;;5036125;28;20401;-71
2022/01/10 06:16:36;;;;;;;1.05;0.68;;;;;;;;;;5055232;28;20037;-71
2022/01/10 06:19:02;;;;;;;1.08;0.65;;;;;;;;;;5055694;28;20040;-71
2022/01/10 06:21:28;;;;;;;0.85;0.52;;;;;;;;;;5055564;28;20036;-71
2022/01/10 06:23:54;;;;;;;0.85;0.50;;;;;;;;;;5055399;28;20108;-71
2022/01/10 06:26:20;;;;;;;0.82;0.60;;;;;;;;;;5055306;28;20017;-71
2022/01/10 06:28:46;;;;;;;0.52;0.35;;;;;;;;;;5055661;28;20029;-71
2022/01/10 06:31:13;;;;;;;1.13;0.77;;;;;;;;;;5053895;28;20086;-71
2022/01/10 06:33:40;;;;;;;0.60;0.40;;;;;;;;;;5055494;28;20029;-71
2022/01/10 06:36:08;;;;;;;1.40;0.88;;;;;;;;;;5055024;28;20029;-71
2022/01/10 06:38:35;;;;;;;1.00;0.70;;;;;;;;;;5054099;28;20039;-71
2022/01/10 06:41:01;;;;;;;1.35;0.70;;;;;;;;;;5050480;28;20388;-71
2022/01/10 06:43:27;;;;;;;0.80;0.68;;;;;;;;;;5035157;28;20045;-71
2022/01/10 06:45:53;;;;;;;0.55;0.50;;;;;;;;;;5034819;28;20053;-71
2022/01/10 06:48:19;;;;;;;0.57;0.55;;;;;;;;;;5035377;28;20021;-71
2022/01/10 06:50:48;;;;;;;1.23;0.60;;;;;;;;;;5034920;28;20068;-72
2022/01/10 06:53:17;;;;;;;0.70;0.45;;;;;;;;;;5035283;28;20022;-71
2022/01/10 06:55:43;;;;;;;0.80;0.70;;;;;;;;;;5034966;28;20052;-71
2022/01/10 06:58:09;;;;;;;0.77;0.60;;;;;;;;;;5034831;28;20045;-71
2022/01/10 07:00:36;;;;;;;0.60;0.50;;;;;;;;;;5035024;28;20512;-71
2022/01/10 07:03:02;;;;;;;0.88;0.60;;;;;;;;;;5034835;28;20021;-71
2022/01/10 07:05:28;;;;;;;0.82;0.70;;;;;;;;;;5042467;28;20485;-71
2022/01/10 07:07:55;;;;;;;1.17;0.70;;;;;;;;;;5054627;28;20070;-71
2022/01/10 07:10:21;;;;;;;0.70;0.68;;;;;;;;;;5054627;28;20377;-71
2022/01/10 07:12:47;;;;;;;0.90;0.70;;;;;;;;;;5054687;28;20021;-71
2022/01/10 07:15:14;;;;;;;1.10;0.80;;;;;;;;;;5044767;28;20033;-71
2022/01/10 07:17:40;;;;;;;1.00;0.65;;;;;;;;;;5034641;28;20374;-71
2022/01/10 07:20:06;;;;;;;1.30;0.80;;;;;;;;;;5034342;28;20428;-71
2022/01/10 07:22:32;;;;;;;1.10;0.80;;;;;;;;;;5034699;28;20025;-71
2022/01/10 07:24:58;;;;;;;0.95;0.63;;;;;;;;;;5034336;28;20025;-71
2022/01/10 07:27:25;;;;;;;0.68;0.60;;;;;;;;;;5034384;28;20751;-71
2022/01/10 07:29:51;;;;;;;1.10;0.70;;;;;;;;;;5034498;28;20405;-71
2022/01/10 07:32:20;;;;;;;0.70;0.63;;;;;;;;;;5034127;28;20390;-71
2022/01/10 07:34:46;;;;;;;0.70;0.68;;;;;;;;;;5034328;28;20049;-71
2022/01/10 07:37:12;;;;;;;0.90;0.70;;;;;;;;;;5034056;28;20037;-71
2022/01/10 07:39:38;;;;;;;1.17;0.77;;;;;;;;;;5032826;28;20030;-71
2022/01/10 07:42:04;;;;;;;0.82;0.65;;;;;;;;;;5046907;28;20499;-71
2022/01/10 07:44:31;;;;;;;0.70;0.70;;;;;;;;;;5054267;28;20044;-71
2022/01/10 07:46:58;;;;;;;0.65;0.60;;;;;;;;;;5054201;28;20338;-71
2022/01/10 07:49:24;;;;;;;1.25;0.80;;;;;;;;;;5054005;28;20029;-71
2022/01/10 07:51:51;;;;;;;0.95;0.73;;;;;;;;;;5053805;28;20052;-71
2022/01/10 07:54:17;;;;;;;0.90;0.63;;;;;;;;;;5053436;28;20036;-72
2022/01/10 07:56:43;;;;;;;0.95;0.85;;;;;;;;;;5039463;28;20133;-72
2022/01/10 07:59:09;;;;;;;1.20;1.00;;;;;;;;;;5034489;28;20397;-72
2022/01/10 08:01:38;;;;;;;2.20;1.00;;;;;;;;;;5032536;28;20052;-72
2022/01/10 08:04:04;;;;;;;0.93;0.80;;;;;;;;;;5032597;28;20025;-74
2022/01/10 08:06:30;;;;;;;2.60;0.80;;;;;;;;;;5045138;28;20033;-76
2022/01/10 08:08:56;;;;;;;2.58;0.70;;;;;;;;;;5034071;28;20456;-75
2022/01/10 08:11:26;;;;;;;3.55;0.65;;;;;;;;;;5063866;28;20387;-74
2022/01/10 08:13:52;;;;;;;2.45;1.00;;;;;;;;;;5043190;28;20474;-74
2022/01/10 08:16:18;;;;;;;6.35;0.80;;;;;;;;;;5054478;28;20028;-74
2022/01/10 08:18:44;;;;;;;9.27;1.55;;;;;;;;;;5052665;28;20052;-74
2022/01/10 08:21:10;;;;;;;5.82;1.20;;;;;;;;;;5051279;28;20021;-75
2022/01/10 08:23:36;;;;;;;16.75;1.10;;;;;;;;;;5033633;28;20033;-74
2022/01/10 08:26:08;;;;;;;9.52;1.55;;;;;;;;;;5052038;28;20028;-74
2022/01/10 08:28:34;;;;;;;4.85;1.08;;;;;;;;;;5050805;28;20032;-74
2022/01/10 08:31:00;;;;;;;5.00;1.05;;;;;;;;;;5038850;28;20503;-74
2022/01/10 08:33:27;;;;;;;11.98;1.38;;;;;;;;;;5033067;28;20103;-74
2022/01/10 08:35:53;;;;;;;17.75;1.95;;;;;;;;;;5033243;28;20063;-71
2022/01/10 08:38:20;;;;;;;31.52;2.33;;;;;;;;;;5043260;28;20372;-70
2022/01/10 08:40:46;;;;;;;23.90;1.90;;;;;;;;;;5041518;28;20021;-70
2022/01/10 08:43:12;;;;;;;13.60;1.88;;;;;;;;;;5063342;28;20450;-70
2022/01/10 08:45:38;;;;;;;11.40;1.50;;;;;;;;;;5045382;28;20029;-72
2022/01/10 08:48:06;;;;;;;10.32;1.35;;;;;;;;;;5041717;28;20439;-72
2022/01/10 08:50:33;;;;;;;10.52;1.58;;;;;;;;;;5037774;28;20053;-72
2022/01/10 08:53:00;;;;;;;6.63;1.00;;;;;;;;;;5047301;28;20447;-71
2022/01/10 08:55:26;;;;;;;3.75;0.90;;;;;;;;;;5051311;28;20108;-71
2022/01/10 08:57:52;;;;;;;3.97;1.08;;;;;;;;;;5050056;28;20060;-71
2022/01/10 09:00:18;;;;;;;9.27;0.90;;;;;;;;;;5043623;28;20127;-71
2022/01/10 09:02:44;;;;;;;5.00;0.80;;;;;;;;;;5045085;28;20385;-71
2022/01/10 09:05:10;;;;;;;4.32;1.08;;;;;;;;;;5034580;28;20032;-72
2022/01/10 09:07:36;;;;;;;4.72;1.23;;;;;;;;;;5045186;28;20053;-71
2022/01/10 09:10:03;;;;;;;5.10;1.20;;;;;;;;;;5049916;28;20090;-71
2022/01/10 09:12:31;;;;;;;7.43;0.90;;;;;;;;;;5046182;28;20071;-73
2022/01/10 09:14:57;;;;;;;4.10;0.65;;;;;;;;;;5047055;28;20503;-72
2022/01/10 09:17:23;;;;;;;4.05;1.00;;;;;;;;;;5049704;28;20545;-73
2022/01/10 09:19:49;;;;;;;5.15;1.10;;;;;;;;;;5043686;28;20090;-71
2022/01/10 09:22:15;;;;;;;9.63;1.48;;;;;;;;;;5039641;28;20040;-71
2022/01/10 09:24:46;;;;;;;3.20;1.00;;;;;;;;;;5048830;28;20031;-71
2022/01/10 09:27:12;;;;;;;6.57;0.90;;;;;;;;;;5036635;28;20535;-74
2022/01/10 09:29:40;;;;;;;7.43;1.20;;;;;;;;;;5051777;28;20040;-72
2022/01/10 09:32:06;;;;;;;5.18;1.00;;;;;;;;;;5049978;28;20119;-72
2022/01/10 09:34:32;;;;;;;5.05;1.00;;;;;;;;;;5050079;28;20033;-72
2022/01/10 09:36:58;;;;;;;1.98;0.70;;;;;;;;;;5050070;28;20534;-72
2022/01/10 09:39:24;;;;;;;3.40;1.02;;;;;;;;;;5052236;28;20059;-71
2022/01/10 09:41:51;;;;;;;4.30;1.10;;;;;;;;;;5048062;28;20021;-71
2022/01/10 09:44:18;;;;;;;6.43;0.90;;;;;;;;;;5051654;28;20088;-71
2022/01/10 09:46:47;;;;;;;3.67;0.88;;;;;;;;;;5049949;28;20108;-72
2022/01/10 09:49:13;;;;;;;3.35;0.82;;;;;;;;;;5051236;28;20336;-72
2022/01/10 09:51:40;;;;;;;5.15;1.08;;;;;;;;;;5051164;28;20957;-72
2022/01/10 09:54:06;;;;;;;9.02;1.10;;;;;;;;;;5041365;28;20048;-73
2022/01/10 09:56:32;;;;;;;11.45;1.30;;;;;;;;;;5051530;28;20623;-72
2022/01/10 09:58:59;;;;;;;2.28;0.90;;;;;;;;;;5050640;28;20025;-72
2022/01/10 10:01:27;;;;;;;2.83;1.00;;;;;;;;;;5050727;28;20017;-72
2022/01/10 10:03:58;;;;;;;2.42;0.90;;;;;;;;;;5045435;28;20394;-72
2022/01/10 10:06:24;;;;;;;4.88;1.00;;;;;;;;;;5033572;28;20022;-71
2022/01/10 10:08:51;;;;;;;6.82;1.92;;;;;;;;;;5043191;28;20131;-72
2022/01/10 10:11:17;;;;;;;13.63;3.08;;;;;;;;;;5043117;28;20100;-72
2022/01/10 10:13:43;;;;;;;10.32;5.65;;;;;;;;;;5042562;28;20088;-71
2022/01/10 10:16:13;;;;;;;9.13;3.33;;;;;;;;;;5046799;28;20112;-72
2022/01/10 10:18:41;;;;;;;11.00;5.57;;;;;;;;;;5049764;28;20110;-72
2022/01/10 10:21:14;;;;;;;10.70;6.72;;;;;;;;;;5049502;28;20021;-74
2022/01/10 10:23:41;;;;;;;;;;;;;;;;;;5038310;28;20032;-74
2022/01/10 10:26:07;;;;;;;18.55;12.80;;;;;;;;;;5056371;28;19909;-72
2022/01/10 10:28:38;;;;;;;14.05;9.38;;;;;;;;;;5054202;28;20032;-72
2022/01/10 10:31:04;;;;;;;12.55;9.18;;;;;;;;;;5054053;28;20047;-72
2022/01/10 10:33:31;;;;;;;17.90;11.80;;;;;;;;;;5053219;28;20029;-73
2022/01/10 10:36:08;;;;;;;13.82;9.75;;;;;;;;;;5053533;28;20028;-71
2022/01/10 10:38:34;;;;;;;8.45;5.78;;;;;;;;;;5051664;28;20033;-71
2022/01/10 10:41:01;;;;;;;6.78;5.72;;;;;;;;;;5038809;28;20081;-72
2022/01/10 10:43:30;;;;;;;8.80;4.60;;;;;;;;;;5045116;28;20031;-71
2022/01/10 10:45:59;;;;;;;16.95;10.25;;;;;;;;;;5053748;28;20062;-72
2022/01/10 10:48:25;;;;;;;8.43;3.83;;;;;;;;;;5051886;28;20037;-71
2022/01/10 10:50:54;;;;;;;11.05;4.40;;;;;;;;;;5051567;28;20036;-72
2022/01/10 10:53:20;;;;;;;9.55;6.78;;;;;;;;;;5053821;28;20032;-71
2022/01/10 10:55:46;;;;;;;8.68;5.43;;;;;;;;;;5054754;28;20029;-71
2022/01/10 10:58:13;;;;;;;9.20;4.45;;;;;;;;;;5050084;28;20135;-71
2022/01/10 11:00:40;;;;;;;9.63;6.13;;;;;;;;;;5052864;28;20032;-71
2022/01/10 11:03:09;;;;;;;5.93;2.80;;;;;;;;;;5051033;28;20033;-72
2022/01/10 11:05:35;;;;;;;7.78;2.90;;;;;;;;;;5051397;28;20104;-71
2022/01/10 11:08:01;;;;;;;7.53;2.70;;;;;;;;;;5044889;28;20032;-71
2022/01/10 11:10:28;;;;;;;9.45;2.78;;;;;;;;;;5048013;28;20024;-71
2022/01/10 11:12:55;;;;;;;9.20;2.92;;;;;;;;;;5050596;28;20033;-71
2022/01/10 11:15:22;;;;;;;8.38;2.45;;;;;;;;;;5049277;28;20153;-71
2022/01/10 11:17:49;;;;;;;7.97;2.40;;;;;;;;;;5044504;28;20450;-71
2022/01/10 11:20:18;;;;;;;7.22;2.40;;;;;;;;;;5044354;28;20032;-72
2022/01/10 11:22:46;;;;;;;13.32;3.65;;;;;;;;;;5047227;28;20025;-71
2022/01/10 11:25:32;;;;;;;7.88;4.03;;;;;;;;;;5049604;28;20420;-71
2022/01/10 11:28:06;;;;;;;6.07;2.60;;;;;;;;;;5049526;28;20037;-71
2022/01/10 11:30:36;;;;;;;5.53;2.83;;;;;;;;;;5056061;28;20021;-72
2022/01/10 11:33:08;;;;;;;3.30;2.55;;;;;;;;;;5050536;28;20388;-72
2022/01/10 11:35:34;;;;;;;5.97;2.63;;;;;;;;;;5044840;28;20036;-71
2022/01/10 11:38:15;;;;;;;5.55;2.55;;;;;;;;;;5035872;28;20550;-72
2022/01/10 11:40:42;;;;;;;7.20;2.90;;;;;;;;;;5040225;28;20062;-71
2022/01/10 11:43:08;;;;;;;6.40;2.45;;;;;;;;;;5042861;28;20036;-72
2022/01/10 11:45:42;;;;;;;10.65;3.85;;;;;;;;;;5051013;28;20029;-71
2022/01/10 11:48:11;;;;;;;10.20;6.70;;;;;;;;;;5052611;28;20040;-71
2022/01/10 11:50:41;;;;;;;5.72;2.85;;;;;;;;;;5056666;28;20086;-71
2022/01/10 11:53:08;;;;;;;7.05;2.70;;;;;;;;;;5043852;28;20025;-71
2022/01/10 11:55:44;;;;;;;6.90;2.60;;;;;;;;;;5042236;28;20025;-71
2022/01/10 11:58:17;;;;;;;6.57;4.50;;;;;;;;;;5051066;28;20037;-71
2022/01/10 12:00:43;;;;;;;7.63;4.03;;;;;;;;;;5053265;28;20040;-73
2022/01/10 12:03:09;;;;;;;4.93;2.80;;;;;;;;;;5050802;28;20034;-71
2022/01/10 12:05:36;;;;;;;9.60;5.32;;;;;;;;;;5042209;28;20087;-71
2022/01/10 12:08:05;;;;;;;11.80;3.20;;;;;;;;;;5047796;28;20509;-74
2022/01/10 12:10:32;;;;;;;7.32;4.28;;;;;;;;;;5046898;28;20204;-71
2022/01/10 12:13:01;;;;;;;7.60;2.70;;;;;;;;;;5040854;28;20451;-72
2022/01/10 12:15:30;;;;;;;7.57;4.75;;;;;;;;;;5051857;28;20017;-71
2022/01/10 12:17:57;;;;;;;9.52;7.28;;;;;;;;;;5037890;28;20762;-71
2022/01/10 12:20:23;;;;;;;13.55;10.95;;;;;;;;;;5033551;28;20041;-73
2022/01/10 12:22:53;;;;;;;7.15;3.20;;;;;;;;;;5033471;28;20021;-71
2022/01/10 12:25:19;;;;;;;10.50;3.17;;;;;;;;;;5049826;28;20021;-71
2022/01/10 12:27:45;;;;;;;7.20;4.10;;;;;;;;;;5050734;28;20794;-72
2022/01/10 12:30:11;;;;;;;12.57;6.57;;;;;;;;;;5050442;28;20021;-72
2022/01/10 12:32:38;;;;;;;12.68;5.53;;;;;;;;;;5050469;28;20025;-71
2022/01/10 12:35:05;;;;;;;14.32;4.45;;;;;;;;;;5040711;28;20097;-71
2022/01/10 12:37:31;;;;;;;7.60;4.85;;;;;;;;;;5044177;28;20048;-72
2022/01/10 12:39:57;;;;;;;13.20;4.25;;;;;;;;;;5037398;28;20040;-72
2022/01/10 12:42:26;;;;;;;13.90;5.97;;;;;;;;;;5045204;28;20564;-71
2022/01/10 12:44:53;;;;;;;11.35;5.82;;;;;;;;;;5038073;28;20036;-71
2022/01/10 12:47:19;;;;;;;11.00;4.15;;;;;;;;;;5047801;28;20052;-71
2022/01/10 12:49:47;;;;;;;10.07;4.30;;;;;;;;;;5037329;28;20032;-73
2022/01/10 12:52:14;;;;;;;12.02;4.82;;;;;;;;;;5031934;28;20037;-72
2022/01/10 12:54:40;;;;;;;8.02;4.35;;;;;;;;;;5036249;28;20048;-71
2022/01/10 12:57:07;;;;;;;6.70;4.35;;;;;;;;;;5032918;28;20054;-71
2022/01/10 12:59:34;;;;;;;8.25;5.35;;;;;;;;;;5044603;28;20492;-72
2022/01/10 13:02:01;;;;;;;8.63;4.53;;;;;;;;;;5049530;28;20029;-73
2022/01/10 13:04:28;;;;;;;8.80;4.22;;;;;;;;;;5045817;28;20021;-73
2022/01/10 13:06:55;;;;;;;8.27;4.65;;;;;;;;;;5045470;28;20043;-74
2022/01/10 13:09:22;;;;;;;12.95;3.80;;;;;;;;;;5043182;28;20033;-72
2022/01/10 13:12:01;;;;;;;10.93;3.30;;;;;;;;;;5043854;28;20048;-73
2022/01/10 13:14:27;;;;;;;7.18;3.38;;;;;;;;;;5039319;28;20465;-73
2022/01/10 13:16:57;;;;;;;7.68;3.92;;;;;;;;;;5043565;28;20444;-73
2022/01/10 13:19:28;;;;;;;12.25;5.82;;;;;;;;;;5047981;28;20025;-72
2022/01/10 13:21:56;;;;;;;10.35;5.05;;;;;;;;;;5044811;28;20377;-72
2022/01/10 13:24:24;;;;;;;8.13;3.92;;;;;;;;;;5046110;28;20029;-71
2022/01/10 13:27:03;;;;;;;8.02;3.35;;;;;;;;;;5046462;28;20113;-72
2022/01/10 13:29:58;;;;;;;11.60;4.00;;;;;;;;;;5039431;28;20029;-71
2022/01/10 13:32:29;;;;;;;8.63;2.88;;;;;;;;;;5038129;28;20408;-71
2022/01/10 13:35:08;;;;;;;6.70;4.50;;;;;;;;;;5042918;28;20124;-71
2022/01/10 13:37:36;;;;;;;6.60;3.75;;;;;;;;;;5044102;28;20033;-71
2022/01/10 13:40:22;;;;;;;6.65;3.55;;;;;;;;;;5045001;28;20029;-71
2022/01/10 13:43:06;;;;;;;4.93;3.28;;;;;;;;;;5044806;28;20099;-71
2022/01/10 13:45:40;;;;;;;6.68;4.00;;;;;;;;;;5044901;28;20041;-72
2022/01/10 13:48:07;;;;;;;7.93;3.83;;;;;;;;;;5037477;28;20995;-72
2022/01/10 13:50:34;;;;;;;11.43;3.67;;;;;;;;;;5046857;28;20028;-71
2022/01/10 13:53:00;;;;;;;7.65;3.13;;;;;;;;;;5043922;28;20083;-71
2022/01/10 13:55:26;;;;;;;7.65;2.90;;;;;;;;;;5042329;28;20030;-69
2022/01/10 13:57:52;;;;;;;8.23;2.38;;;;;;;;;;5038186;28;20102;-70
2022/01/10 14:00:19;;;;;;;3.67;2.10;;;;;;;;;;5036969;28;20025;-69
2022/01/10 14:02:46;;;;;;;3.67;2.30;;;;;;;;;;5040771;28;20115;-69
2022/01/10 14:05:19;;;;;;;3.72;2.60;;;;;;;;;;5039077;28;20033;-68
2022/01/10 14:07:45;;;;;;;3.38;1.80;;;;;;;;;;5047043;28;20032;-69
2022/01/10 14:10:12;;;;;;;6.05;2.72;;;;;;;;;;5037088;28;20025;-69
2022/01/10 14:12:38;;;;;;;3.67;3.20;;;;;;;;;;5049919;28;20034;-69
2022/01/10 14:15:04;;;;;;;4.18;2.30;;;;;;;;;;5046945;28;20027;-70
2022/01/10 14:17:30;;;;;;;4.05;2.28;;;;;;;;;;5050363;28;20025;-70
2022/01/10 14:19:57;;;;;;;3.65;2.30;;;;;;;;;;5045101;28;20090;-70
2022/01/10 14:22:23;;;;;;;2.92;2.20;;;;;;;;;;5044452;28;20106;-70
2022/01/10 14:24:49;;;;;;;2.63;1.98;;;;;;;;;;5049358;28;20043;-69
2022/01/10 14:27:15;;;;;;;3.47;2.10;;;;;;;;;;5047478;28;20017;-70
2022/01/10 14:29:41;;;;;;;3.80;2.22;;;;;;;;;;5040178;28;20057;-69
2022/01/10 14:32:09;;;;;;;4.00;2.35;;;;;;;;;;5041662;28;20036;-69
2022/01/10 14:34:35;;;;;;;8.20;2.65;;;;;;;;;;5042536;28;20033;-69
2022/01/10 14:37:01;;;;;;;6.40;2.33;;;;;;;;;;5043086;28;20037;-69
2022/01/10 14:39:27;;;;;;;3.92;2.03;;;;;;;;;;5043243;28;20056;-69
2022/01/10 14:41:53;;;;;;;3.75;2.10;;;;;;;;;;5043998;28;20555;-69
2022/01/10 14:44:19;;;;;;;3.30;2.13;;;;;;;;;;5052111;28;20029;-70
2022/01/10 14:46:46;;;;;;;3.50;2.05;;;;;;;;;;5048452;28;20025;-70
2022/01/10 14:49:12;;;;;;;6.13;2.13;;;;;;;;;;5040935;28;20095;-69